createdAt,value
2018-02-02T00:00:02.341Z,5.12
2018-02-02T00:01:02.397Z,5.11
2018-02-02T00:02:02.312Z,5.12
2018-02-02T00:03:03.223Z,5.09
2018-02-02T00:04:06.371Z,5.09
2018-02-02T00:05:06.192Z,5.1
2018-02-02T00:06:06.262Z,5.09
2018-02-02T00:07:06.376Z,5.09
2018-02-02T00:08:06.286Z,5.1
2018-02-02T00:09:06.196Z,5.1
2018-02-02T00:10:06.469Z,5.09
2018-02-02T00:11:06.294Z,5.09
2018-02-02T00:12:06.323Z,5.1
2018-02-02T00:13:06.226Z,5.08
2018-02-02T00:14:06.203Z,5.08
2018-02-02T00:15:06.918Z,5.1
2018-02-02T00:16:06.201Z,5.08
2018-02-02T00:17:07.056Z,5.07
2018-02-02T00:18:06.340Z,5.09
2018-02-02T00:19:06.332Z,5.12
2018-02-02T00:20:06.293Z,5.09
2018-02-02T00:21:06.584Z,5.1
2018-02-02T00:22:06.385Z,5.08
2018-02-02T00:23:06.269Z,5.09
2018-02-02T00:24:06.323Z,5.1
2018-02-02T00:25:06.395Z,5.09
2018-02-02T00:26:06.602Z,5.1
2018-02-02T00:27:06.390Z,5.1
2018-02-02T00:28:06.223Z,5.1
2018-02-02T00:29:06.327Z,5.1
2018-02-02T00:30:06.317Z,5.12
2018-02-02T00:31:06.507Z,5.11
2018-02-02T00:32:06.511Z,5.12
2018-02-02T00:33:06.642Z,5.14
2018-02-02T00:34:08.293Z,5.14
2018-02-02T00:35:08.369Z,5.15
2018-02-02T00:36:08.304Z,5.15
2018-02-02T00:37:08.389Z,5.15
2018-02-02T00:38:08.467Z,5.15
2018-02-02T00:39:08.464Z,5.17
2018-02-02T00:40:08.237Z,5.16
2018-02-02T00:41:08.303Z,5.15
2018-02-02T00:42:08.312Z,5.17
2018-02-02T00:43:08.437Z,5.17
2018-02-02T00:44:08.370Z,5.2
2018-02-02T00:45:08.285Z,5.17
2018-02-02T00:46:08.406Z,5.17
2018-02-02T00:47:08.470Z,5.19
2018-02-02T00:48:08.456Z,5.18
2018-02-02T00:49:08.576Z,5.17
2018-02-02T00:50:08.504Z,5.19
2018-02-02T00:51:08.170Z,5.17
2018-02-02T00:52:08.385Z,5.17
2018-02-02T00:53:08.368Z,5.16
2018-02-02T00:54:08.545Z,5.19
2018-02-02T00:55:08.266Z,5.16
2018-02-02T00:56:08.356Z,5.17
2018-02-02T00:57:08.428Z,5.16
2018-02-02T00:58:08.458Z,5.17
2018-02-02T00:59:08.418Z,5.16
2018-02-02T01:00:08.461Z,5.15
2018-02-02T01:01:08.308Z,5.16
2018-02-02T01:02:08.479Z,5.15
2018-02-02T01:03:09.014Z,5.16
2018-02-02T01:04:06.905Z,5.15
2018-02-02T01:05:06.914Z,5.15
2018-02-02T01:06:06.987Z,5.15
2018-02-02T01:07:07.006Z,5.16
2018-02-02T01:08:06.884Z,5.17
2018-02-02T01:09:06.766Z,5.15
2018-02-02T01:10:06.631Z,5.16
2018-02-02T01:11:07.070Z,5.16
2018-02-02T01:12:06.782Z,5.15
2018-02-02T01:13:06.686Z,5.15
2018-02-02T01:14:06.828Z,5.16
2018-02-02T01:15:06.701Z,5.16
2018-02-02T01:16:06.806Z,5.17
2018-02-02T01:17:07.124Z,5.15
2018-02-02T01:18:06.709Z,5.14
2018-02-02T01:19:06.883Z,5.15
2018-02-02T01:20:06.875Z,5.16
2018-02-02T01:21:06.865Z,5.14
2018-02-02T01:22:06.817Z,5.15
2018-02-02T01:23:06.777Z,5.15
2018-02-02T01:24:06.823Z,5.14
2018-02-02T01:25:06.889Z,5.12
2018-02-02T01:26:06.888Z,5.14
2018-02-02T01:27:07.049Z,5.14
2018-02-02T01:28:06.969Z,5.13
2018-02-02T01:29:07.066Z,5.13
2018-02-02T01:30:07.771Z,5.13
2018-02-02T01:31:06.949Z,5.14
2018-02-02T01:32:06.864Z,5.12
2018-02-02T01:33:06.938Z,5.13
2018-02-02T01:34:06.835Z,5.12
2018-02-02T01:36:02.182Z,5.13
2018-02-02T01:37:01.939Z,5.11
2018-02-02T01:38:01.817Z,5.11
2018-02-02T01:39:02.059Z,5.1
2018-02-02T01:40:02.390Z,5.1
2018-02-02T01:41:02.003Z,5.09
2018-02-02T01:42:02.006Z,5.09
2018-02-02T01:43:01.953Z,5.1
2018-02-02T01:44:01.848Z,5.1
2018-02-02T01:45:02.012Z,5.1
2018-02-02T01:46:01.941Z,5.1
2018-02-02T01:47:01.927Z,5.1
2018-02-02T01:48:02.280Z,5.1
2018-02-02T01:49:01.795Z,5.09
2018-02-02T01:50:02.007Z,5.12
2018-02-02T01:51:02.045Z,5.11
2018-02-02T01:52:02.090Z,5.13
2018-02-02T01:53:02.004Z,5.1
2018-02-02T01:54:02.001Z,5.09
2018-02-02T01:55:01.905Z,5.1
2018-02-02T01:56:02.033Z,5.09
2018-02-02T01:57:01.998Z,5.1
2018-02-02T01:58:02.031Z,5.1
2018-02-02T01:59:01.982Z,5.1
2018-02-02T02:00:01.898Z,5.08
2018-02-02T02:01:01.955Z,5.07
2018-02-02T02:02:02.070Z,5.09
2018-02-02T02:03:02.066Z,5.07
2018-02-02T02:04:01.929Z,5.05
2018-02-02T02:05:01.757Z,5.08
2018-02-02T02:05:58.890Z,5.06
2018-02-02T02:06:58.902Z,5.06
2018-02-02T02:07:59.031Z,5.08
2018-02-02T02:08:59.540Z,5.06
2018-02-02T02:09:58.908Z,5.07
2018-02-02T02:10:58.912Z,5.05
2018-02-02T02:11:58.803Z,5.06
2018-02-02T02:12:58.812Z,5.04
2018-02-02T02:13:58.905Z,5.03
2018-02-02T02:14:59.186Z,5.05
2018-02-02T02:15:58.948Z,5.06
2018-02-02T02:16:58.742Z,5.04
2018-02-02T02:17:59.007Z,5.04
2018-02-02T02:18:59.068Z,5.05
2018-02-02T02:19:59.006Z,5.04
2018-02-02T02:20:58.702Z,5.04
2018-02-02T02:21:59.004Z,5.02
2018-02-02T02:22:58.748Z,5.02
2018-02-02T02:23:58.944Z,5.03
2018-02-02T02:24:59.071Z,5.04
2018-02-02T02:25:58.849Z,5.04
2018-02-02T02:26:58.820Z,5.04
2018-02-02T02:27:58.807Z,5.02
2018-02-02T02:28:58.736Z,5.02
2018-02-02T02:29:58.941Z,5.02
2018-02-02T02:30:58.733Z,5.01
2018-02-02T02:31:58.866Z,5.01
2018-02-02T02:32:58.829Z,5.01
2018-02-02T02:33:58.781Z,5.02
2018-02-02T02:34:58.876Z,5.01
2018-02-02T02:35:59.097Z,5.01
2018-02-02T02:37:01.173Z,5.02
2018-02-02T02:38:00.820Z,5.06
2018-02-02T02:39:01.092Z,5.03
2018-02-02T02:40:01.039Z,5.06
2018-02-02T02:41:00.935Z,5.05
2018-02-02T02:42:01.046Z,5.07
2018-02-02T02:43:00.922Z,5.05
2018-02-02T02:44:00.957Z,5.05
2018-02-02T02:45:00.989Z,5.04
2018-02-02T02:46:01.217Z,5.06
2018-02-02T02:47:01.026Z,5.04
2018-02-02T02:48:00.953Z,5.03
2018-02-02T02:49:01.197Z,5.04
2018-02-02T02:50:01.037Z,5.04
2018-02-02T02:51:01.008Z,5.05
2018-02-02T02:52:00.881Z,5.03
2018-02-02T02:53:00.782Z,5.05
2018-02-02T02:54:01.218Z,5.02
2018-02-02T02:55:01.099Z,5.01
2018-02-02T02:56:01.049Z,5.02
2018-02-02T02:57:01.165Z,5.04
2018-02-02T02:58:01.186Z,5.03
2018-02-02T02:59:00.977Z,5.04
2018-02-02T03:00:01.256Z,5.03
2018-02-02T03:01:00.773Z,5.05
2018-02-02T03:02:01.682Z,5.05
2018-02-02T03:03:01.061Z,5.05
2018-02-02T03:04:01.110Z,5.04
2018-02-02T03:05:01.002Z,5.05
2018-02-02T03:06:01.078Z,5.07
2018-02-02T03:06:05.953Z,5.07
2018-02-02T03:07:06.021Z,5.08
2018-02-02T03:08:06.037Z,5.06
2018-02-02T03:09:06.073Z,5.09
2018-02-02T03:10:05.855Z,5.06
2018-02-02T03:11:05.872Z,5.06
2018-02-02T03:12:06.114Z,5.07
2018-02-02T03:13:06.148Z,5.07
2018-02-02T03:14:06.065Z,5.08
2018-02-02T03:15:06.004Z,5.09
2018-02-02T03:16:05.956Z,5.08
2018-02-02T03:17:06.087Z,5.07
2018-02-02T03:18:05.921Z,5.08
2018-02-02T03:19:05.930Z,5.07
2018-02-02T03:20:06.024Z,5.07
2018-02-02T03:21:05.946Z,5.08
2018-02-02T03:22:05.832Z,5.07
2018-02-02T03:23:05.921Z,5.07
2018-02-02T03:24:05.957Z,5.05
2018-02-02T03:25:05.993Z,5.08
2018-02-02T03:26:05.990Z,5.09
2018-02-02T03:27:05.830Z,5.09
2018-02-02T03:28:05.818Z,5.07
2018-02-02T03:29:05.990Z,5.06
2018-02-02T03:30:06.157Z,5.05
2018-02-02T03:31:06.068Z,5.06
2018-02-02T03:32:06.062Z,5.06
2018-02-02T03:33:05.964Z,5.06
2018-02-02T03:34:06.252Z,5.07
2018-02-02T03:35:05.930Z,5.08
2018-02-02T03:36:05.998Z,5.07
2018-02-02T03:37:08.949Z,5.08
2018-02-02T03:38:09.058Z,5.08
2018-02-02T03:39:09.274Z,5.06
2018-02-02T03:40:09.125Z,5.06
2018-02-02T03:41:09.008Z,5.07
2018-02-02T03:42:09.008Z,5.06
2018-02-02T03:43:09.031Z,5.07
2018-02-02T03:44:08.979Z,5.06
2018-02-02T03:45:09.218Z,5.06
2018-02-02T03:46:09.028Z,5.07
2018-02-02T03:47:09.263Z,5.07
2018-02-02T03:48:09.130Z,5.08
2018-02-02T03:49:09.083Z,5.07
2018-02-02T03:50:08.793Z,5.07
2018-02-02T03:51:08.973Z,5.07
2018-02-02T03:52:08.925Z,5.08
2018-02-02T03:53:08.933Z,5.07
2018-02-02T03:54:09.043Z,5.07
2018-02-02T03:55:08.856Z,5.08
2018-02-02T03:56:08.928Z,5.08
2018-02-02T03:57:09.115Z,5.08
2018-02-02T03:58:08.895Z,5.06
2018-02-02T03:59:09.100Z,5.08
2018-02-02T04:00:09.007Z,5.07
2018-02-02T04:01:09.129Z,5.09
2018-02-02T04:02:09.060Z,5.09
2018-02-02T04:03:09.005Z,5.08
2018-02-02T04:04:09.202Z,5.09
2018-02-02T04:05:09.104Z,5.09
2018-02-02T04:06:09.212Z,5.08
2018-02-02T04:07:07.085Z,5.1
2018-02-02T04:08:07.020Z,5.1
2018-02-02T04:09:07.305Z,5.09
2018-02-02T04:10:07.137Z,5.08
2018-02-02T04:11:07.154Z,5.06
2018-02-02T04:12:07.196Z,5.08
2018-02-02T04:13:07.272Z,5.07
2018-02-02T04:14:07.342Z,5.08
2018-02-02T04:15:07.313Z,5.08
2018-02-02T04:16:07.251Z,5.06
2018-02-02T04:17:07.156Z,5.07
2018-02-02T04:18:07.147Z,5.06
2018-02-02T04:19:07.271Z,5.08
2018-02-02T04:20:07.252Z,5.09
2018-02-02T04:21:07.202Z,5.08
2018-02-02T04:22:07.182Z,5.08
2018-02-02T04:23:07.167Z,5.07
2018-02-02T04:24:07.091Z,5.06
2018-02-02T04:25:07.153Z,5.06
2018-02-02T04:26:07.099Z,5.06
2018-02-02T04:27:07.228Z,5.05
2018-02-02T04:28:07.247Z,5.05
2018-02-02T04:29:07.049Z,5.05
2018-02-02T04:30:07.033Z,5.05
2018-02-02T04:31:07.214Z,5.04
2018-02-02T04:32:07.102Z,5.03
2018-02-02T04:33:07.178Z,5.03
2018-02-02T04:34:07.173Z,5.02
2018-02-02T04:35:07.279Z,5.02
2018-02-02T04:36:07.302Z,5.03
2018-02-02T04:37:07.105Z,5.03
2018-02-02T04:39:02.513Z,5.02
2018-02-02T04:40:02.014Z,5.02
2018-02-02T04:41:02.126Z,5.02
2018-02-02T04:42:02.289Z,5.02
2018-02-02T04:43:02.292Z,5.03
2018-02-02T04:44:02.256Z,5.02
2018-02-02T04:45:02.313Z,5.03
2018-02-02T04:46:02.413Z,5.02
2018-02-02T04:47:02.438Z,5.03
2018-02-02T04:48:02.290Z,5.03
2018-02-02T04:49:02.099Z,5.02
2018-02-02T04:50:02.145Z,5.01
2018-02-02T04:51:02.238Z,5.02
2018-02-02T04:52:02.210Z,5
2018-02-02T04:53:02.146Z,4.99
2018-02-02T04:54:02.326Z,4.99
2018-02-02T04:55:02.245Z,5
2018-02-02T04:56:02.187Z,5.02
2018-02-02T04:57:02.343Z,5.01
2018-02-02T04:58:02.298Z,5.01
2018-02-02T04:59:02.215Z,4.99
2018-02-02T05:00:02.111Z,4.99
2018-02-02T05:01:02.392Z,4.99
2018-02-02T05:02:02.122Z,4.99
2018-02-02T05:03:02.166Z,5
2018-02-02T05:04:02.306Z,5
2018-02-02T05:05:02.236Z,5.01
2018-02-02T05:06:02.336Z,5
2018-02-02T05:07:02.172Z,5
2018-02-02T05:08:02.375Z,5
2018-02-02T05:08:59.363Z,4.98
2018-02-02T05:09:59.242Z,4.98
2018-02-02T05:10:59.147Z,4.96
2018-02-02T05:11:59.144Z,4.97
2018-02-02T05:12:59.260Z,4.97
2018-02-02T05:13:59.222Z,4.98
2018-02-02T05:14:59.427Z,4.96
2018-02-02T05:15:59.377Z,4.97
2018-02-02T05:16:59.204Z,4.97
2018-02-02T05:17:59.317Z,4.97
2018-02-02T05:18:59.195Z,4.97
2018-02-02T05:19:59.321Z,4.97
2018-02-02T05:20:59.194Z,4.97
2018-02-02T05:21:59.550Z,4.97
2018-02-02T05:22:59.138Z,4.96
2018-02-02T05:23:59.309Z,4.97
2018-02-02T05:24:59.177Z,4.99
2018-02-02T05:25:59.245Z,4.97
2018-02-02T05:26:59.272Z,4.98
2018-02-02T05:27:59.233Z,4.98
2018-02-02T05:28:59.363Z,4.96
2018-02-02T05:29:59.430Z,4.96
2018-02-02T05:30:59.356Z,4.98
2018-02-02T05:31:59.385Z,4.98
2018-02-02T05:32:59.351Z,4.97
2018-02-02T05:33:59.329Z,4.96
2018-02-02T05:34:59.135Z,4.98
2018-02-02T05:35:59.091Z,4.98
2018-02-02T05:36:59.040Z,4.97
2018-02-02T05:37:59.128Z,4.97
2018-02-02T05:38:59.230Z,4.99
2018-02-02T05:40:01.413Z,4.97
2018-02-02T05:41:01.466Z,4.98
2018-02-02T05:42:01.320Z,5.01
2018-02-02T05:43:01.136Z,4.99
2018-02-02T05:44:01.280Z,4.98
2018-02-02T05:45:01.416Z,4.97
2018-02-02T05:46:01.105Z,4.96
2018-02-02T05:47:01.252Z,4.96
2018-02-02T05:48:01.273Z,4.97
2018-02-02T05:49:01.270Z,4.98
2018-02-02T05:50:01.314Z,4.97
2018-02-02T05:51:01.289Z,4.96
2018-02-02T05:52:01.284Z,4.96
2018-02-02T05:53:01.199Z,4.96
2018-02-02T05:54:01.376Z,4.97
2018-02-02T05:55:01.231Z,4.97
2018-02-02T05:56:01.276Z,4.94
2018-02-02T05:57:01.334Z,4.98
2018-02-02T05:58:01.285Z,4.97
2018-02-02T05:59:01.096Z,4.96
2018-02-02T06:00:01.423Z,4.97
2018-02-02T06:01:01.296Z,4.97
2018-02-02T06:02:01.247Z,4.97
2018-02-02T06:03:01.433Z,4.97
2018-02-02T06:04:01.359Z,4.97
2018-02-02T06:05:01.491Z,4.97
2018-02-02T06:06:01.372Z,4.96
2018-02-02T06:07:01.182Z,4.98
2018-02-02T06:08:01.261Z,4.97
2018-02-02T06:09:01.326Z,4.98
2018-02-02T06:09:06.220Z,4.97
2018-02-02T06:10:06.286Z,4.98
2018-02-02T06:11:06.187Z,4.96
2018-02-02T06:12:06.139Z,4.99
2018-02-02T06:13:06.180Z,4.99
2018-02-02T06:14:06.376Z,4.99
2018-02-02T06:15:06.300Z,4.99
2018-02-02T06:16:07.384Z,4.98
2018-02-02T06:17:06.065Z,4.98
2018-02-02T06:18:11.614Z,5.07
2018-02-02T06:19:06.322Z,5.01
2018-02-02T06:20:06.382Z,4.99
2018-02-02T06:21:06.258Z,5
2018-02-02T06:22:07.394Z,5
2018-02-02T06:23:09.672Z,4.99
2018-02-02T06:24:06.128Z,5.04
2018-02-02T06:25:06.899Z,5.03
2018-02-02T06:26:06.109Z,5.02
2018-02-02T06:27:06.255Z,5
2018-02-02T06:28:06.292Z,4.98
2018-02-02T06:29:06.248Z,4.99
2018-02-02T06:30:06.515Z,5
2018-02-02T06:31:06.278Z,4.98
2018-02-02T06:32:06.382Z,4.99
2018-02-02T06:33:06.480Z,4.98
2018-02-02T06:34:06.242Z,5
2018-02-02T06:35:06.316Z,4.99
2018-02-02T06:36:06.209Z,4.99
2018-02-02T06:37:06.151Z,5
2018-02-02T06:38:07.194Z,5
2018-02-02T06:39:06.354Z,5
2018-02-02T06:40:09.453Z,5
2018-02-02T06:41:09.445Z,5.01
2018-02-02T06:42:09.321Z,5.01
2018-02-02T06:43:09.315Z,5
2018-02-02T06:44:09.528Z,5.02
2018-02-02T06:45:09.382Z,5.02
2018-02-02T06:46:09.374Z,5.01
2018-02-02T06:47:09.450Z,5.02
2018-02-02T06:48:09.302Z,5.03
2018-02-02T06:49:09.851Z,5.03
2018-02-02T06:50:09.389Z,5.03
2018-02-02T06:51:09.246Z,5.01
2018-02-02T06:52:09.243Z,5.03
2018-02-02T06:53:09.246Z,5.01
2018-02-02T06:54:09.378Z,5.04
2018-02-02T06:55:09.359Z,5.01
2018-02-02T06:56:09.429Z,5.04
2018-02-02T06:57:09.299Z,5.04
2018-02-02T06:58:09.368Z,5.03
2018-02-02T06:59:09.507Z,5.03
2018-02-02T07:00:09.411Z,5.03
2018-02-02T07:01:09.649Z,5.04
2018-02-02T07:02:09.353Z,5.04
2018-02-02T07:03:09.278Z,5.04
2018-02-02T07:04:09.421Z,5.04
2018-02-02T07:05:09.168Z,5.04
2018-02-02T07:06:09.290Z,5.05
2018-02-02T07:07:09.373Z,5.06
2018-02-02T07:08:09.211Z,5.05
2018-02-02T07:09:09.370Z,5.05
2018-02-02T07:10:07.458Z,5.05
2018-02-02T07:11:07.412Z,5.09
2018-02-02T07:12:07.314Z,5.07
2018-02-02T07:13:07.350Z,5.09
2018-02-02T07:14:07.365Z,5.08
2018-02-02T07:15:07.259Z,5.1
2018-02-02T07:16:08.458Z,5.09
2018-02-02T07:17:07.309Z,5.11
2018-02-02T07:18:07.292Z,5.09
2018-02-02T07:19:07.373Z,5.1
2018-02-02T07:20:07.324Z,5.11
2018-02-02T07:21:07.301Z,5.1
2018-02-02T07:22:07.352Z,5.09
2018-02-02T07:23:07.452Z,5.1
2018-02-02T07:24:07.306Z,5.12
2018-02-02T07:25:07.330Z,5.12
2018-02-02T07:26:07.286Z,5.13
2018-02-02T07:27:07.270Z,5.12
2018-02-02T07:28:07.334Z,5.11
2018-02-02T07:29:07.330Z,5.11
2018-02-02T07:30:07.419Z,5.11
2018-02-02T07:31:07.539Z,5.1
2018-02-02T07:32:07.429Z,5.1
2018-02-02T07:33:07.345Z,5.11
2018-02-02T07:34:07.624Z,5.1
2018-02-02T07:35:07.243Z,5.11
2018-02-02T07:36:07.275Z,5.11
2018-02-02T07:37:07.355Z,5.12
2018-02-02T07:38:07.239Z,5.1
2018-02-02T07:39:07.900Z,5.11
2018-02-02T07:40:07.379Z,5.11
2018-02-02T07:42:01.542Z,5.11
2018-02-02T07:43:01.498Z,5.12
2018-02-02T07:44:01.560Z,5.1
2018-02-02T07:45:01.578Z,5.11
2018-02-02T07:46:01.634Z,5.1
2018-02-02T07:47:01.744Z,5.11
2018-02-02T07:48:01.501Z,5.12
2018-02-02T07:49:01.582Z,5.11
2018-02-02T07:50:01.541Z,5.12
2018-02-02T07:51:01.480Z,5.1
2018-02-02T07:52:01.690Z,5.1
2018-02-02T07:53:01.593Z,5.11
2018-02-02T07:54:01.401Z,5.12
2018-02-02T07:55:01.521Z,5.12
2018-02-02T07:56:01.396Z,5.12
2018-02-02T07:57:01.399Z,5.12
2018-02-02T07:58:01.507Z,5.1
2018-02-02T07:59:01.552Z,5.11
2018-02-02T08:00:01.469Z,5.1
2018-02-02T08:01:01.463Z,5.1
2018-02-02T08:02:01.368Z,5.09
2018-02-02T08:03:01.627Z,5.1
2018-02-02T08:04:01.553Z,5.08
2018-02-02T08:05:01.423Z,5.06
2018-02-02T08:06:01.515Z,5.07
2018-02-02T08:07:01.541Z,5.08
2018-02-02T08:08:01.604Z,5.09
2018-02-02T08:09:01.613Z,5.11
2018-02-02T08:10:01.493Z,5.06
2018-02-02T08:11:01.691Z,5.08
2018-02-02T08:11:57.514Z,5.06
2018-02-02T08:12:57.552Z,5.06
2018-02-02T08:13:57.490Z,5.05
2018-02-02T08:14:57.499Z,5.05
2018-02-02T08:15:57.515Z,5.07
2018-02-02T08:16:57.523Z,5.08
2018-02-02T08:17:57.511Z,5.08
2018-02-02T08:18:57.590Z,5.07
2018-02-02T08:19:57.465Z,5.07
2018-02-02T08:20:57.572Z,5.08
2018-02-02T08:21:57.452Z,5.09
2018-02-02T08:22:57.542Z,5.09
2018-02-02T08:23:57.400Z,5.08
2018-02-02T08:24:57.481Z,5.08
2018-02-02T08:25:57.445Z,5.06
2018-02-02T08:26:57.655Z,5.08
2018-02-02T08:27:57.500Z,5.06
2018-02-02T08:28:57.505Z,5.07
2018-02-02T08:29:57.580Z,5.08
2018-02-02T08:30:57.520Z,5.08
2018-02-02T08:31:57.559Z,5.08
2018-02-02T08:32:57.525Z,5.07
2018-02-02T08:33:57.602Z,5.1
2018-02-02T08:36:08.025Z,5.1
2018-02-02T08:36:57.621Z,5.11
2018-02-02T08:37:57.435Z,5.11
2018-02-02T08:38:57.709Z,5.11
2018-02-02T08:39:57.560Z,5.1
2018-02-02T08:40:57.743Z,5.1
2018-02-02T08:41:57.700Z,5.1
2018-02-02T08:42:59.694Z,5.11
2018-02-02T08:43:59.496Z,5.11
2018-02-02T08:44:59.663Z,5.1
2018-02-02T08:45:59.507Z,5.1
2018-02-02T08:46:59.622Z,5.1
2018-02-02T08:47:59.804Z,5.11
2018-02-02T08:48:59.569Z,5.13
2018-02-02T08:49:59.688Z,5.13
2018-02-02T08:50:59.722Z,5.13
2018-02-02T08:51:59.771Z,5.13
2018-02-02T08:52:59.643Z,5.13
2018-02-02T08:53:59.689Z,5.11
2018-02-02T08:54:59.564Z,5.11
2018-02-02T08:55:59.604Z,5.11
2018-02-02T08:56:59.659Z,5.11
2018-02-02T08:57:59.666Z,5.11
2018-02-02T08:58:59.545Z,5.1
2018-02-02T08:59:59.637Z,5.11
2018-02-02T09:00:59.710Z,5.1
2018-02-02T09:01:59.678Z,5.11
2018-02-02T09:02:59.592Z,5.12
2018-02-02T09:03:59.568Z,5.12
2018-02-02T09:04:59.600Z,5.12
2018-02-02T09:06:00.491Z,5.13
2018-02-02T09:06:59.579Z,5.12
2018-02-02T09:07:59.531Z,5.11
2018-02-02T09:08:59.536Z,5.11
2018-02-02T09:09:59.505Z,5.11
2018-02-02T09:10:59.931Z,5.1
2018-02-02T09:11:59.808Z,5.12
2018-02-02T09:12:06.694Z,5.12
2018-02-02T09:13:06.903Z,5.13
2018-02-02T09:14:06.907Z,5.13
2018-02-02T09:15:07.166Z,5.11
2018-02-02T09:16:06.991Z,5.1
2018-02-02T09:17:06.564Z,5.12
2018-02-02T09:18:07.180Z,5.1
2018-02-02T09:19:06.751Z,5.11
2018-02-02T09:20:06.746Z,5.1
2018-02-02T09:21:06.799Z,5.1
2018-02-02T09:22:06.410Z,5.12
2018-02-02T09:23:06.247Z,5.12
2018-02-02T09:24:06.947Z,5.13
2018-02-02T09:25:06.861Z,5.13
2018-02-02T09:26:06.998Z,5.13
2018-02-02T09:27:06.704Z,5.14
2018-02-02T09:28:06.879Z,5.14
2018-02-02T09:29:06.752Z,5.15
2018-02-02T09:30:06.887Z,5.13
2018-02-02T09:31:06.415Z,5.14
2018-02-02T09:32:07.045Z,5.14
2018-02-02T09:33:06.654Z,5.13
2018-02-02T09:34:06.880Z,5.15
2018-02-02T09:35:06.656Z,5.14
2018-02-02T09:36:06.731Z,5.13
2018-02-02T09:37:06.805Z,5.14
2018-02-02T09:38:06.585Z,5.15
2018-02-02T09:39:07.257Z,5.13
2018-02-02T09:40:06.246Z,5.14
2018-02-02T09:41:06.630Z,5.15
2018-02-02T09:42:06.819Z,5.15
2018-02-02T09:43:09.828Z,5.15
2018-02-02T09:44:09.738Z,5.15
2018-02-02T09:45:09.782Z,5.14
2018-02-02T09:46:09.772Z,5.16
2018-02-02T09:47:09.678Z,5.17
2018-02-02T09:48:09.787Z,5.17
2018-02-02T09:49:09.812Z,5.18
2018-02-02T09:50:09.833Z,5.2
2018-02-02T09:51:09.617Z,5.21
2018-02-02T09:52:09.675Z,5.2
2018-02-02T09:53:09.823Z,5.18
2018-02-02T09:54:09.690Z,5.19
2018-02-02T09:55:09.745Z,5.19
2018-02-02T09:56:09.749Z,5.21
2018-02-02T09:57:09.713Z,5.2
2018-02-02T09:58:09.770Z,5.19
2018-02-02T09:59:09.735Z,5.2
2018-02-02T10:00:10.034Z,5.2
2018-02-02T10:01:10.510Z,5.18
2018-02-02T10:02:09.732Z,5.19
2018-02-02T10:03:09.760Z,5.19
2018-02-02T10:04:09.812Z,5.18
2018-02-02T10:05:09.730Z,5.19
2018-02-02T10:06:09.951Z,5.2
2018-02-02T10:07:09.969Z,5.19
2018-02-02T10:08:09.634Z,5.2
2018-02-02T10:09:10.386Z,5.22
2018-02-02T10:10:09.697Z,5.21
2018-02-02T10:11:09.666Z,5.21
2018-02-02T10:12:10.052Z,5.2
2018-02-02T10:13:09.249Z,5.21
2018-02-02T10:14:07.952Z,5.22
2018-02-02T10:15:08.695Z,5.2
2018-02-02T10:16:07.985Z,5.2
2018-02-02T10:17:08.396Z,5.21
2018-02-02T10:18:07.975Z,5.2
2018-02-02T10:19:08.150Z,5.22
2018-02-02T10:20:08.006Z,5.22
2018-02-02T10:21:08.045Z,5.22
2018-02-02T10:22:08.486Z,5.23
2018-02-02T10:23:07.959Z,5.21
2018-02-02T10:24:08.015Z,5.23
2018-02-02T10:25:08.335Z,5.26
2018-02-02T10:26:08.816Z,5.22
2018-02-02T10:27:07.948Z,5.22
2018-02-02T10:28:07.955Z,5.24
2018-02-02T10:29:08.015Z,5.25
2018-02-02T10:30:08.397Z,5.26
2018-02-02T10:31:10.352Z,5.26
2018-02-02T10:32:09.196Z,5.27
2018-02-02T10:33:09.393Z,5.26
2018-02-02T10:34:08.333Z,5.27
2018-02-02T10:35:08.091Z,5.28
2018-02-02T10:36:08.051Z,5.29
2018-02-02T10:37:07.935Z,5.27
2018-02-02T10:38:08.058Z,5.26
2018-02-02T10:39:09.211Z,5.27
2018-02-02T10:40:08.603Z,5.28
2018-02-02T10:41:08.577Z,5.28
2018-02-02T10:42:08.004Z,5.27
2018-02-02T10:43:08.103Z,5.28
2018-02-02T10:45:03.779Z,5.28
2018-02-02T10:46:02.229Z,5.27
2018-02-02T10:47:02.168Z,5.27
2018-02-02T10:48:02.278Z,5.29
2018-02-02T10:49:02.389Z,5.28
2018-02-02T10:50:02.220Z,5.29
2018-02-02T10:51:02.850Z,5.29
2018-02-02T10:52:03.440Z,5.27
2018-02-02T10:53:03.365Z,5.29
2018-02-02T10:54:03.083Z,5.29
2018-02-02T10:55:03.364Z,5.29
2018-02-02T10:56:02.129Z,5.31
2018-02-02T10:57:02.085Z,5.32
2018-02-02T10:58:02.269Z,5.33
2018-02-02T10:59:01.986Z,5.33
2018-02-02T11:00:02.046Z,5.31
2018-02-02T11:01:01.937Z,5.3
2018-02-02T11:02:02.031Z,5.31
2018-02-02T11:03:02.108Z,5.3
2018-02-02T11:04:02.194Z,5.32
2018-02-02T11:05:02.100Z,5.32
2018-02-02T11:06:02.152Z,5.33
2018-02-02T11:07:02.175Z,5.31
2018-02-02T11:08:02.204Z,5.31
2018-02-02T11:09:02.085Z,5.32
2018-02-02T11:10:02.223Z,5.32
2018-02-02T11:11:02.084Z,5.33
2018-02-02T11:12:02.255Z,5.35
2018-02-02T11:13:02.228Z,5.37
2018-02-02T11:14:02.336Z,5.36
2018-02-02T11:14:58.167Z,5.34
2018-02-02T11:15:58.202Z,5.36
2018-02-02T11:16:58.263Z,5.36
2018-02-02T11:17:58.175Z,5.36
2018-02-02T11:18:58.026Z,5.35
2018-02-02T11:19:58.146Z,5.36
2018-02-02T11:20:57.990Z,5.37
2018-02-02T11:21:58.133Z,5.35
2018-02-02T11:22:58.174Z,5.36
2018-02-02T11:23:58.205Z,5.36
2018-02-02T11:24:58.238Z,5.34
2018-02-02T11:25:58.137Z,5.34
2018-02-02T11:26:58.040Z,5.36
2018-02-02T11:27:58.151Z,5.38
2018-02-02T11:28:58.077Z,5.39
2018-02-02T11:29:58.096Z,5.39
2018-02-02T11:30:58.028Z,5.37
2018-02-02T11:31:58.110Z,5.37
2018-02-02T11:32:58.017Z,5.39
2018-02-02T11:33:57.996Z,5.38
2018-02-02T11:34:57.983Z,5.39
2018-02-02T11:35:58.044Z,5.41
2018-02-02T11:36:58.099Z,5.39
2018-02-02T11:37:58.147Z,5.4
2018-02-02T11:38:58.524Z,5.38
2018-02-02T11:39:58.238Z,5.4
2018-02-02T11:40:58.168Z,5.41
2018-02-02T11:41:57.942Z,5.4
2018-02-02T11:42:58.062Z,5.41
2018-02-02T11:43:58.293Z,5.41
2018-02-02T11:44:58.205Z,5.42
2018-02-02T11:48:00.031Z,5.41
2018-02-02T11:49:00.275Z,5.4
2018-02-02T11:50:00.120Z,5.4
2018-02-02T11:51:00.289Z,5.42
2018-02-02T11:52:00.111Z,5.38
2018-02-02T11:53:00.074Z,5.41
2018-02-02T11:54:00.133Z,5.42
2018-02-02T11:55:00.151Z,5.39
2018-02-02T11:56:00.242Z,5.39
2018-02-02T11:57:00.062Z,5.4
2018-02-02T11:58:00.201Z,5.42
2018-02-02T11:59:00.228Z,5.41
2018-02-02T12:00:00.080Z,5.44
2018-02-02T12:01:00.048Z,5.43
2018-02-02T12:02:00.102Z,5.44
2018-02-02T12:03:00.096Z,5.45
2018-02-02T12:04:00.192Z,5.45
2018-02-02T12:05:00.041Z,5.45
2018-02-02T12:06:00.194Z,5.42
2018-02-02T12:07:00.075Z,5.43
2018-02-02T12:08:00.196Z,5.43
2018-02-02T12:09:00.149Z,5.44
2018-02-02T12:10:00.171Z,5.44
2018-02-02T12:11:00.149Z,5.46
2018-02-02T12:12:00.439Z,5.46
2018-02-02T12:13:00.190Z,5.46
2018-02-02T12:14:00.145Z,5.46
2018-02-02T12:15:00.205Z,5.46
2018-02-02T12:15:06.349Z,5.45
2018-02-02T12:16:06.321Z,5.44
2018-02-02T12:17:06.326Z,5.43
2018-02-02T12:18:06.237Z,5.41
2018-02-02T12:19:06.378Z,5.41
2018-02-02T12:20:06.194Z,5.43
2018-02-02T12:21:06.246Z,5.43
2018-02-02T12:22:06.227Z,5.45
2018-02-02T12:23:06.100Z,5.47
2018-02-02T12:24:06.321Z,5.48
2018-02-02T12:25:06.224Z,5.49
2018-02-02T12:26:06.434Z,5.49
2018-02-02T12:27:06.314Z,5.49
2018-02-02T12:28:06.182Z,5.44
2018-02-02T12:29:06.367Z,5.43
2018-02-02T12:30:06.260Z,5.42
2018-02-02T12:31:06.328Z,5.42
2018-02-02T12:32:06.246Z,5.44
2018-02-02T12:33:06.200Z,5.41
2018-02-02T12:34:06.257Z,5.43
2018-02-02T12:35:06.286Z,5.43
2018-02-02T12:36:06.332Z,5.44
2018-02-02T12:37:06.354Z,5.42
2018-02-02T12:38:06.325Z,5.42
2018-02-02T12:39:06.343Z,5.43
2018-02-02T12:40:06.224Z,5.42
2018-02-02T12:41:06.426Z,5.41
2018-02-02T12:42:06.350Z,5.43
2018-02-02T12:43:06.280Z,5.45
2018-02-02T12:44:06.227Z,5.43
2018-02-02T12:45:06.458Z,5.4
2018-02-02T12:46:10.377Z,5.41
2018-02-02T12:47:10.330Z,5.41
2018-02-02T12:48:10.230Z,5.4
2018-02-02T12:49:10.336Z,5.41
2018-02-02T12:50:10.376Z,5.41
2018-02-02T12:51:10.202Z,5.42
2018-02-02T12:52:10.494Z,5.42
2018-02-02T12:53:10.575Z,5.43
2018-02-02T12:54:10.201Z,5.43
2018-02-02T12:55:10.176Z,5.43
2018-02-02T12:56:10.387Z,5.45
2018-02-02T12:57:10.371Z,5.42
2018-02-02T12:58:10.571Z,5.43
2018-02-02T12:59:10.340Z,5.42
2018-02-02T13:00:10.369Z,5.44
2018-02-02T13:01:10.267Z,5.46
2018-02-02T13:02:10.447Z,5.45
2018-02-02T13:03:10.376Z,5.44
2018-02-02T13:04:10.409Z,5.45
2018-02-02T13:05:10.234Z,5.45
2018-02-02T13:06:10.229Z,5.45
2018-02-02T13:07:10.317Z,5.45
2018-02-02T13:08:10.309Z,5.45
2018-02-02T13:09:10.376Z,5.44
2018-02-02T13:10:10.155Z,5.45
2018-02-02T13:11:10.132Z,5.45
2018-02-02T13:12:10.220Z,5.47
2018-02-02T13:13:10.296Z,5.49
2018-02-02T13:14:10.341Z,5.45
2018-02-02T13:15:10.440Z,5.44
2018-02-02T13:16:08.439Z,5.46
2018-02-02T13:17:08.528Z,5.45
2018-02-02T13:18:08.248Z,5.49
2018-02-02T13:19:08.403Z,5.53
2018-02-02T13:20:08.447Z,5.56
2018-02-02T13:21:08.341Z,5.54
2018-02-02T13:22:08.325Z,5.52
2018-02-02T13:23:08.222Z,5.52
2018-02-02T13:24:08.349Z,5.51
2018-02-02T13:25:08.214Z,5.51